Time;durP1;ratioP1;P1;durP2;ratioP2;P2;SDS_P1;SDS_P2;PMS_P1;PMS_P2;Temp;Humidity;BMP_temperature;BMP_pressure;BME280_temperature;BME280_humidity;BME280_pressure;Samples;Min_cycle;Max_cycle;Signal;HPM_P1;HPM_P2
2021/08/15 00:00:37;;;;;;;10.75;9.65;;;25.70;69.70;;;;;;5016647;28;20228;-88
2021/08/15 00:03:03;;;;;;;11.15;10.25;;;25.70;69.70;;;;;;5018815;28;20599;-89
2021/08/15 00:05:28;;;;;;;10.27;9.57;;;25.80;69.70;;;;;;5018846;28;20272;-88
2021/08/15 00:07:54;;;;;;;10.98;9.95;;;25.70;69.50;;;;;;5020481;28;20186;-87
2021/08/15 00:10:20;;;;;;;10.82;9.90;;;25.60;69.80;;;;;;5020643;28;20247;-87
2021/08/15 00:12:46;;;;;;;9.80;9.00;;;25.40;71.40;;;;;;5020902;28;20197;-87
2021/08/15 00:15:14;;;;;;;10.52;9.65;;;25.30;70.90;;;;;;5020398;28;20193;-86
2021/08/15 00:17:40;;;;;;;11.85;10.50;;;25.40;70.40;;;;;;5020897;28;20209;-89
2021/08/15 00:20:08;;;;;;;10.80;9.82;;;25.30;71.70;;;;;;5019179;28;20220;-88
2021/08/15 00:22:38;;;;;;;10.75;9.80;;;25.20;72.10;;;;;;5020947;28;20696;-89
2021/08/15 00:25:05;;;;;;;11.07;10.05;;;25.00;73.10;;;;;;5021237;28;20252;-87
2021/08/15 00:27:30;;;;;;;10.90;9.90;;;24.90;73.30;;;;;;5020439;28;20182;-88
2021/08/15 00:29:56;;;;;;;11.00;10.10;;;24.90;73.00;;;;;;5020512;28;20248;-90
2021/08/15 00:32:22;;;;;;;10.98;9.95;;;24.90;73.10;;;;;;5019673;28;20209;-88
2021/08/15 00:34:47;;;;;;;11.27;10.27;;;24.70;74.10;;;;;;5024399;28;20208;-88
2021/08/15 00:37:13;;;;;;;11.10;9.93;;;24.70;74.30;;;;;;5024695;28;20291;-88
2021/08/15 00:39:39;;;;;;;11.00;10.05;;;24.60;73.60;;;;;;5024340;28;20201;-89
2021/08/15 00:42:05;;;;;;;10.75;9.85;;;24.50;74.60;;;;;;5023196;28;20279;-88
2021/08/15 00:44:31;;;;;;;11.35;10.25;;;24.40;75.30;;;;;;5021772;28;20187;-87
2021/08/15 00:46:57;;;;;;;11.02;10.00;;;24.40;75.30;;;;;;5038687;28;20216;-87
2021/08/15 00:49:23;;;;;;;10.82;9.98;;;24.30;75.20;;;;;;5023766;28;20198;-88
2021/08/15 00:51:48;;;;;;;10.30;9.27;;;24.40;74.60;;;;;;5022284;28;20247;-88
2021/08/15 00:54:15;;;;;;;11.02;10.18;;;24.60;73.90;;;;;;5023804;28;20718;-87
2021/08/15 00:56:41;;;;;;;10.95;9.95;;;24.60;73.40;;;;;;5037350;28;20197;-87
2021/08/15 00:59:08;;;;;;;11.00;10.13;;;24.50;73.80;;;;;;5027621;28;20209;-88
2021/08/15 01:01:34;;;;;;;10.32;9.32;;;24.60;73.50;;;;;;5023254;28;20225;-86
2021/08/15 01:04:03;;;;;;;11.15;10.15;;;24.70;72.80;;;;;;5021844;28;20190;-87
2021/08/15 01:06:32;;;;;;;10.85;9.95;;;24.70;72.70;;;;;;5022649;28;20196;-87
2021/08/15 01:08:58;;;;;;;11.43;10.48;;;24.70;73.00;;;;;;5023862;28;20201;-85
2021/08/15 01:11:23;;;;;;;11.35;10.23;;;24.60;73.00;;;;;;5023359;28;20194;-84
2021/08/15 01:13:49;;;;;;;10.57;9.75;;;24.50;73.40;;;;;;5019701;28;20216;-86
2021/08/15 01:16:15;;;;;;;10.68;9.77;;;24.50;73.10;;;;;;5030308;28;20190;-87
2021/08/15 01:18:43;;;;;;;10.77;9.90;;;24.50;73.00;;;;;;5023386;28;20228;-87
2021/08/15 01:21:13;;;;;;;11.18;10.27;;;24.40;73.10;;;;;;5025580;28;20220;-86
2021/08/15 01:23:41;;;;;;;11.10;10.20;;;24.60;72.80;;;;;;5033182;28;20186;-85
2021/08/15 01:26:15;;;;;;;10.65;9.85;;;24.50;73.00;;;;;;5034123;28;20224;-87
2021/08/15 01:28:41;;;;;;;11.27;10.27;;;24.50;73.20;;;;;;5023709;28;20269;-86
2021/08/15 01:31:10;;;;;;;11.48;10.55;;;24.20;74.50;;;;;;5023232;28;20256;-87
2021/08/15 01:33:41;;;;;;;10.52;9.73;;;24.10;74.80;;;;;;5022541;28;20208;-87
2021/08/15 01:36:11;;;;;;;11.50;10.45;;;24.30;74.40;;;;;;5022830;28;20189;-87
2021/08/15 01:38:38;;;;;;;11.45;10.30;;;24.50;73.70;;;;;;5022693;28;20190;-88
2021/08/15 01:41:05;;;;;;;11.98;10.52;;;24.40;73.40;;;;;;5022075;28;20229;-88
2021/08/15 01:43:34;;;;;;;11.77;10.60;;;24.20;74.40;;;;;;5022898;28;20184;-88
2021/08/15 01:46:01;;;;;;;11.15;10.15;;;24.20;74.30;;;;;;5022073;28;20941;-88
2021/08/15 01:48:27;;;;;;;11.23;10.27;;;24.40;73.40;;;;;;5023241;28;20193;-88
2021/08/15 01:50:52;;;;;;;10.90;9.88;;;24.50;73.00;;;;;;5023143;28;20301;-87
2021/08/15 01:53:20;;;;;;;13.27;11.85;;;24.60;72.70;;;;;;5022729;28;20220;-88
2021/08/15 01:55:46;;;;;;;12.23;11.00;;;24.30;74.30;;;;;;5021500;28;20190;-87
2021/08/15 01:58:13;;;;;;;11.75;10.75;;;24.00;76.10;;;;;;5022173;28;20194;-87
2021/08/15 02:00:41;;;;;;;11.63;10.63;;;24.00;76.50;;;;;;5021856;28;20247;-88
2021/08/15 02:03:07;;;;;;;12.30;11.10;;;24.00;76.10;;;;;;5021506;28;20196;-88
2021/08/15 02:05:33;;;;;;;11.75;10.70;;;24.10;75.40;;;;;;5022411;28;20240;-88
2021/08/15 02:08:00;;;;;;;11.45;10.38;;;24.00;75.50;;;;;;5022368;28;20197;-87
2021/08/15 02:10:28;;;;;;;12.48;11.25;;;24.20;75.20;;;;;;5022727;28;20244;-88
2021/08/15 02:12:55;;;;;;;10.75;9.95;;;24.20;74.50;;;;;;5018795;28;20201;-88
2021/08/15 02:15:21;;;;;;;11.77;10.60;;;24.30;74.10;;;;;;5023321;28;20649;-86
2021/08/15 02:17:47;;;;;;;10.48;9.65;;;24.10;74.20;;;;;;5022779;28;20220;-87
2021/08/15 02:20:16;;;;;;;12.02;11.05;;;24.00;74.30;;;;;;5022827;28;20214;-88
2021/08/15 02:22:42;;;;;;;12.40;11.23;;;23.60;75.00;;;;;;5023989;28;20189;-88
2021/08/15 02:25:13;;;;;;;11.95;10.95;;;23.50;76.40;;;;;;5022916;28;20197;-87
2021/08/15 02:27:41;;;;;;;11.23;10.15;;;23.50;76.40;;;;;;5021956;28;20205;-88
2021/08/15 02:30:09;;;;;;;11.95;10.85;;;23.70;75.40;;;;;;5022818;28;20244;-87
2021/08/15 02:32:36;;;;;;;11.43;10.52;;;23.90;74.30;;;;;;5023218;28;20197;-87
2021/08/15 02:35:03;;;;;;;11.18;10.27;;;24.00;73.30;;;;;;5029194;28;20197;-85
2021/08/15 02:37:30;;;;;;;12.02;11.07;;;24.00;73.50;;;;;;5032700;28;20198;-87
2021/08/15 02:39:59;;;;;;;11.38;10.32;;;24.00;72.80;;;;;;5032279;28;20214;-88
2021/08/15 02:42:26;;;;;;;11.05;10.18;;;24.00;72.80;;;;;;5037320;28;20252;-88
2021/08/15 02:44:52;;;;;;;11.45;10.35;;;24.00;72.50;;;;;;5038142;28;20181;-86
2021/08/15 02:47:18;;;;;;;10.60;9.73;;;24.10;72.40;;;;;;5027252;28;20551;-87
2021/08/15 02:49:44;;;;;;;12.15;11.13;;;24.10;71.90;;;;;;5031488;28;20277;-87
2021/08/15 02:52:10;;;;;;;11.77;10.85;;;24.10;72.20;;;;;;5036616;28;20213;-88
2021/08/15 02:54:36;;;;;;;11.73;10.80;;;24.10;71.80;;;;;;5021190;28;20185;-88
2021/08/15 02:57:03;;;;;;;10.98;9.98;;;24.10;71.60;;;;;;5018972;28;20209;-88
2021/08/15 02:59:29;;;;;;;11.38;10.38;;;24.10;71.50;;;;;;5021968;28;20213;-87
2021/08/15 03:01:55;;;;;;;11.25;10.20;;;24.20;70.90;;;;;;5020334;28;20229;-87
2021/08/15 03:04:20;;;;;;;10.90;9.90;;;24.00;71.30;;;;;;5021247;28;20189;-86
2021/08/15 03:06:46;;;;;;;10.65;9.70;;;24.00;71.30;;;;;;5021648;28;20213;-88
2021/08/15 03:09:12;;;;;;;11.55;10.60;;;23.90;71.40;;;;;;5021493;28;20202;-88
2021/08/15 03:11:38;;;;;;;10.80;9.80;;;24.00;71.20;;;;;;5020382;28;20304;-88
2021/08/15 03:14:04;;;;;;;10.65;9.70;;;24.00;71.00;;;;;;5022196;28;20225;-87
2021/08/15 03:16:29;;;;;;;10.90;9.80;;;24.00;70.80;;;;;;5021438;28;20189;-88
2021/08/15 03:18:55;;;;;;;10.88;9.77;;;24.10;70.60;;;;;;5018418;28;20194;-86
2021/08/15 03:21:24;;;;;;;11.15;10.20;;;24.00;69.10;;;;;;5019581;28;20279;-87
2021/08/15 03:23:50;;;;;;;11.10;10.10;;;23.70;70.90;;;;;;5021026;28;20185;-87
2021/08/15 03:26:16;;;;;;;10.90;9.90;;;23.50;71.90;;;;;;5021678;28;20580;-88
2021/08/15 03:28:43;;;;;;;10.48;9.68;;;23.30;72.50;;;;;;5020048;28;20630;-88
2021/08/15 03:31:08;;;;;;;11.48;10.48;;;23.20;73.00;;;;;;5020056;28;20300;-87
2021/08/15 03:33:34;;;;;;;10.30;9.30;;;23.20;73.00;;;;;;5037289;28;20228;-88
2021/08/15 03:36:01;;;;;;;11.00;10.18;;;23.30;72.30;;;;;;5021423;28;20186;-88
2021/08/15 03:38:27;;;;;;;12.27;11.13;;;23.10;73.00;;;;;;5021161;28;20572;-88
2021/08/15 03:40:52;;;;;;;12.20;11.00;;;22.80;74.40;;;;;;5020982;28;20229;-88
2021/08/15 03:43:18;;;;;;;13.75;10.70;;;22.70;74.90;;;;;;5020118;28;20203;-88
2021/08/15 03:45:44;;;;;;;11.88;10.88;;;22.50;75.50;;;;;;5023995;28;20209;-87
2021/08/15 03:48:09;;;;;;;10.43;9.40;;;22.40;75.80;;;;;;5020518;28;20197;-88
2021/08/15 03:50:35;;;;;;;11.25;10.13;;;22.20;76.70;;;;;;5022127;28;20205;-88
2021/08/15 03:53:01;;;;;;;10.27;9.10;;;22.20;77.30;;;;;;5020250;28;20212;-88
2021/08/15 03:55:27;;;;;;;11.15;10.05;;;22.30;76.70;;;;;;5020515;28;20295;-88
2021/08/15 03:57:52;;;;;;;9.95;9.05;;;22.60;75.70;;;;;;5020278;28;20200;-88
2021/08/15 04:00:18;;;;;;;10.55;9.60;;;22.70;75.00;;;;;;5020684;28;20239;-87
2021/08/15 04:02:44;;;;;;;10.90;9.82;;;22.70;75.30;;;;;;5020805;28;20222;-88
2021/08/15 04:05:10;;;;;;;10.20;9.20;;;22.80;74.60;;;;;;5021349;28;20269;-88
2021/08/15 04:07:36;;;;;;;10.45;9.50;;;22.80;73.60;;;;;;5021389;28;20580;-87
2021/08/15 04:10:03;;;;;;;10.80;9.40;;;22.70;73.60;;;;;;5024888;28;20189;-88
2021/08/15 04:12:30;;;;;;;10.13;9.23;;;22.60;73.60;;;;;;5024583;28;20197;-86
2021/08/15 04:14:55;;;;;;;9.55;8.75;;;22.50;74.20;;;;;;5025375;28;20324;-88
2021/08/15 04:17:21;;;;;;;10.32;9.32;;;22.30;76.50;;;;;;5024370;28;20252;-87
2021/08/15 04:19:47;;;;;;;9.88;8.88;;;22.40;76.20;;;;;;5023736;28;20188;-88
2021/08/15 04:22:12;;;;;;;10.07;9.15;;;22.50;75.30;;;;;;5024677;28;20206;-87
2021/08/15 04:24:38;;;;;;;9.68;8.77;;;22.60;74.50;;;;;;5038829;28;20728;-87
2021/08/15 04:27:05;;;;;;;9.82;8.90;;;22.70;73.90;;;;;;5026074;28;20204;-88
2021/08/15 04:29:30;;;;;;;10.05;9.00;;;22.50;74.70;;;;;;5024699;28;20261;-88
2021/08/15 04:31:56;;;;;;;9.73;8.82;;;22.30;75.40;;;;;;5022720;28;20276;-88
2021/08/15 04:34:22;;;;;;;9.90;8.90;;;22.30;75.60;;;;;;5039599;28;20335;-87
2021/08/15 04:36:48;;;;;;;10.18;9.18;;;22.40;75.00;;;;;;5024439;28;20201;-88
2021/08/15 04:39:13;;;;;;;9.68;8.88;;;22.50;72.80;;;;;;5023704;28;20197;-86
2021/08/15 04:41:39;;;;;;;9.57;8.75;;;22.60;74.40;;;;;;5024909;28;20213;-86
2021/08/15 04:44:05;;;;;;;9.43;8.63;;;22.70;73.70;;;;;;5023885;28;20759;-88
2021/08/15 04:46:31;;;;;;;9.35;8.55;;;22.80;73.30;;;;;;5023274;28;20194;-87
2021/08/15 04:48:56;;;;;;;8.73;7.97;;;22.90;73.40;;;;;;5023240;28;20190;-88
2021/08/15 04:51:22;;;;;;;8.68;7.97;;;22.90;73.70;;;;;;5023110;28;20251;-87
2021/08/15 04:53:48;;;;;;;9.60;8.70;;;23.00;73.10;;;;;;5024343;28;20676;-86
2021/08/15 04:56:15;;;;;;;9.73;8.75;;;23.00;72.90;;;;;;5022219;28;20221;-88
2021/08/15 04:58:40;;;;;;;9.27;8.48;;;23.20;73.50;;;;;;5021933;28;20193;-88
2021/08/15 05:01:06;;;;;;;9.57;8.43;;;23.30;71.50;;;;;;5024172;28;20220;-88
2021/08/15 05:03:32;;;;;;;8.85;8.05;;;23.10;71.60;;;;;;5021484;28;20276;-87
2021/08/15 05:05:57;;;;;;;9.60;8.88;;;23.10;72.50;;;;;;5022953;28;20691;-88
2021/08/15 05:08:23;;;;;;;10.00;8.90;;;23.00;72.90;;;;;;5029858;28;20189;-87
2021/08/15 05:10:49;;;;;;;10.18;8.55;;;23.00;71.70;;;;;;5029562;28;20221;-87
2021/08/15 05:13:14;;;;;;;9.18;8.27;;;22.90;71.20;;;;;;5024946;28;20205;-88
2021/08/15 05:15:40;;;;;;;8.88;8.18;;;22.90;72.00;;;;;;5020990;28;20224;-87
2021/08/15 05:18:06;;;;;;;8.68;7.88;;;23.00;69.30;;;;;;5019511;28;20660;-88
2021/08/15 05:20:32;;;;;;;8.55;7.65;;;23.00;67.20;;;;;;5018644;28;20225;-88
2021/08/15 05:22:58;;;;;;;8.90;7.90;;;22.90;66.90;;;;;;5019362;28;20217;-88
2021/08/15 05:25:25;;;;;;;8.60;7.75;;;22.80;67.50;;;;;;5033659;28;20189;-88
2021/08/15 05:27:50;;;;;;;7.45;6.72;;;22.80;67.80;;;;;;5021568;28;20226;-87
2021/08/15 05:30:16;;;;;;;7.85;7.15;;;22.80;68.00;;;;;;5021976;28;20213;-88
2021/08/15 05:32:42;;;;;;;8.57;7.72;;;22.80;66.00;;;;;;5035599;28;20193;-88
2021/08/15 05:35:10;;;;;;;8.55;7.75;;;22.70;67.70;;;;;;5017131;28;20193;-88
2021/08/15 05:37:38;;;;;;;8.68;7.30;;;22.80;68.00;;;;;;5022738;28;20224;-88
2021/08/15 05:40:04;;;;;;;8.98;7.53;;;22.80;68.50;;;;;;5023013;28;20209;-88
2021/08/15 05:42:30;;;;;;;7.40;6.70;;;22.80;66.50;;;;;;5023236;28;20212;-88
2021/08/15 05:44:55;;;;;;;7.57;6.85;;;22.80;66.50;;;;;;5022245;28;20190;-88
2021/08/15 05:47:21;;;;;;;8.77;7.40;;;22.80;65.10;;;;;;5022805;28;20285;-87
2021/08/15 05:49:47;;;;;;;9.15;6.88;;;22.70;65.80;;;;;;5020992;28;20192;-88
2021/08/15 05:52:12;;;;;;;8.70;7.55;;;22.60;65.60;;;;;;5021225;28;20224;-88
2021/08/15 05:54:38;;;;;;;7.35;6.50;;;22.50;65.80;;;;;;5021347;28;20222;-86
2021/08/15 05:57:04;;;;;;;11.73;6.85;;;22.50;65.10;;;;;;5022618;28;20208;-87
2021/08/15 05:59:30;;;;;;;7.43;6.72;;;22.30;65.10;;;;;;5020563;28;20542;-86
2021/08/15 06:01:55;;;;;;;8.55;7.35;;;22.20;65.80;;;;;;5022816;28;20228;-86
2021/08/15 06:04:21;;;;;;;8.80;6.78;;;22.30;66.50;;;;;;5040265;28;20189;-86
2021/08/15 06:06:47;;;;;;;10.10;7.40;;;22.40;67.70;;;;;;5023230;28;20579;-86
2021/08/15 06:09:13;;;;;;;8.18;7.10;;;22.50;66.50;;;;;;5021298;28;20216;-87
2021/08/15 06:11:39;;;;;;;9.65;7.65;;;22.50;65.70;;;;;;5022907;28;20204;-85
2021/08/15 06:14:05;;;;;;;9.43;7.43;;;22.50;66.20;;;;;;5038111;28;20208;-86
2021/08/15 06:16:31;;;;;;;10.60;7.30;;;22.50;66.10;;;;;;5028461;28;20227;-86
2021/08/15 06:18:56;;;;;;;11.35;7.80;;;22.60;65.90;;;;;;5021679;28;20206;-86
2021/08/15 06:21:22;;;;;;;11.55;7.32;;;22.50;66.00;;;;;;5018911;28;20304;-90
2021/08/15 06:23:49;;;;;;;8.13;7.28;;;22.60;66.50;;;;;;5026921;28;20209;-89
2021/08/15 06:26:16;;;;;;;10.18;6.72;;;22.70;66.00;;;;;;5022169;28;20193;-87
2021/08/15 06:28:42;;;;;;;9.80;8.35;;;22.60;65.60;;;;;;5024440;28;20205;-86
2021/08/15 06:31:08;;;;;;;8.68;7.88;;;22.60;65.90;;;;;;5025262;28;20213;-88
2021/08/15 06:33:34;;;;;;;9.60;8.10;;;22.60;66.40;;;;;;5031645;28;20264;-86
2021/08/15 06:36:00;;;;;;;8.57;7.80;;;22.60;66.80;;;;;;5035928;28;20204;-87
2021/08/15 06:38:25;;;;;;;9.90;7.85;;;22.40;67.30;;;;;;5029508;28;20201;-86
2021/08/15 06:40:51;;;;;;;9.35;7.45;;;22.40;67.20;;;;;;5003834;28;20221;-86
2021/08/15 06:43:18;;;;;;;8.10;7.03;;;22.40;67.90;;;;;;5022471;28;20190;-87
2021/08/15 06:45:44;;;;;;;9.18;7.32;;;22.50;67.70;;;;;;5020081;28;20200;-86
2021/08/15 06:48:10;;;;;;;8.00;7.30;;;22.70;67.10;;;;;;5021768;28;20186;-86
2021/08/15 06:50:36;;;;;;;7.90;6.97;;;22.70;67.30;;;;;;5020296;28;20227;-86
2021/08/15 06:53:03;;;;;;;9.82;7.70;;;22.70;67.30;;;;;;5021178;28;20299;-86
2021/08/15 06:55:29;;;;;;;8.98;7.60;;;22.70;67.60;;;;;;5025848;28;20277;-86
2021/08/15 06:57:55;;;;;;;9.48;7.60;;;22.80;67.80;;;;;;5032725;28;20204;-89
2021/08/15 07:00:21;;;;;;;8.52;7.72;;;22.90;67.90;;;;;;5035728;28;20288;-88
2021/08/15 07:02:50;;;;;;;15.25;7.97;;;22.80;67.50;;;;;;5021881;28;20193;-87
2021/08/15 07:05:16;;;;;;;7.80;6.88;;;22.70;67.40;;;;;;5019806;28;20198;-87
2021/08/15 07:07:42;;;;;;;9.88;6.90;;;22.70;67.00;;;;;;5020177;28;20683;-86
2021/08/15 07:10:09;;;;;;;9.57;8.10;;;22.70;67.10;;;;;;5020126;28;20186;-88
2021/08/15 07:12:36;;;;;;;9.75;7.47;;;22.90;67.10;;;;;;5019963;28;20193;-86
2021/08/15 07:15:02;;;;;;;8.60;7.80;;;22.80;67.60;;;;;;5019859;28;20212;-86
2021/08/15 07:17:29;;;;;;;8.23;7.45;;;22.90;67.90;;;;;;5018113;28;20190;-87
2021/08/15 07:19:55;;;;;;;8.43;7.45;;;23.10;67.50;;;;;;5032078;28;20208;-86
2021/08/15 07:22:20;;;;;;;9.90;7.47;;;23.20;66.30;;;;;;5017845;28;20194;-87
2021/08/15 07:24:46;;;;;;;8.60;7.80;;;23.40;66.10;;;;;;5017497;28;20209;-87
2021/08/15 07:27:12;;;;;;;8.45;7.60;;;23.50;65.60;;;;;;5017585;28;20182;-87
2021/08/15 07:29:38;;;;;;;8.27;7.57;;;23.50;66.10;;;;;;5016875;28;20684;-86
2021/08/15 07:32:04;;;;;;;10.15;8.25;;;23.60;66.30;;;;;;5019223;28;20209;-88
2021/08/15 07:34:29;;;;;;;8.18;7.32;;;23.80;64.00;;;;;;5018449;28;20197;-87
2021/08/15 07:36:55;;;;;;;9.18;8.25;;;23.80;63.80;;;;;;5032437;28;20193;-88
2021/08/15 07:39:21;;;;;;;8.20;7.50;;;24.00;63.10;;;;;;5019166;28;20257;-87
2021/08/15 07:41:46;;;;;;;8.77;7.85;;;24.20;63.10;;;;;;5016234;28;20240;-88
2021/08/15 07:44:12;;;;;;;8.52;7.68;;;24.40;62.80;;;;;;5018616;28;20201;-88
2021/08/15 07:46:38;;;;;;;8.25;7.47;;;24.50;62.50;;;;;;5019043;28;20197;-88
2021/08/15 07:49:04;;;;;;;8.02;7.28;;;24.50;62.00;;;;;;5020252;28;20551;-88
2021/08/15 07:51:29;;;;;;;9.23;8.25;;;24.50;61.80;;;;;;5019639;28;20210;-88
2021/08/15 07:53:58;;;;;;;8.60;7.70;;;24.40;61.00;;;;;;5021479;28;20196;-88
2021/08/15 07:56:24;;;;;;;9.18;8.30;;;24.40;61.20;;;;;;5017259;28;20625;-88
2021/08/15 07:58:50;;;;;;;8.40;7.53;;;24.50;61.50;;;;;;5017904;28;20194;-88
2021/08/15 08:01:16;;;;;;;9.93;8.40;;;24.70;61.40;;;;;;5018751;28;20230;-88
2021/08/15 08:03:42;;;;;;;9.38;7.90;;;24.70;60.60;;;;;;5017461;28;20189;-88
2021/08/15 08:06:08;;;;;;;10.60;7.80;;;24.70;60.50;;;;;;5019040;28;20185;-88
2021/08/15 08:08:34;;;;;;;8.25;7.53;;;24.80;60.50;;;;;;5029594;28;20172;-88
2021/08/15 08:11:00;;;;;;;8.63;7.80;;;25.00;60.20;;;;;;5018532;28;20222;-88
2021/08/15 08:13:27;;;;;;;8.88;7.93;;;25.20;59.60;;;;;;4999553;28;20688;-89
2021/08/15 08:15:53;;;;;;;7.97;7.35;;;25.20;60.80;;;;;;5019448;28;20190;-87
2021/08/15 08:18:19;;;;;;;8.68;7.88;;;25.30;60.60;;;;;;5018236;28;20194;-88
2021/08/15 08:20:45;;;;;;;8.13;7.47;;;25.30;60.40;;;;;;5019392;28;20228;-88
2021/08/15 08:23:15;;;;;;;8.60;7.90;;;25.40;60.30;;;;;;5019010;28;20193;-88
2021/08/15 08:25:44;;;;;;;9.52;8.07;;;25.30;60.20;;;;;;5031471;28;20185;-88
2021/08/15 08:28:10;;;;;;;8.82;7.78;;;25.30;59.70;;;;;;5034824;28;20198;-88
2021/08/15 08:30:36;;;;;;;8.43;7.63;;;25.40;59.80;;;;;;5018706;28;20205;-87
2021/08/15 08:33:02;;;;;;;8.48;7.68;;;25.40;60.20;;;;;;5018998;28;20239;-88
2021/08/15 08:35:27;;;;;;;8.57;7.80;;;25.50;60.40;;;;;;5018862;28;20252;-87
2021/08/15 08:37:53;;;;;;;8.95;8.05;;;25.50;60.20;;;;;;5018051;28;20189;-88
2021/08/15 08:40:20;;;;;;;9.10;8.13;;;25.60;59.40;;;;;;5016547;28;20226;-89
2021/08/15 08:42:47;;;;;;;8.98;8.18;;;25.70;59.50;;;;;;5020620;28;20197;-88
2021/08/15 08:45:17;;;;;;;8.95;8.05;;;25.70;60.30;;;;;;5021340;28;20200;-89
2021/08/15 08:47:43;;;;;;;9.32;8.38;;;25.90;60.40;;;;;;5020694;28;20185;-88
2021/08/15 08:50:09;;;;;;;8.43;7.63;;;26.10;59.40;;;;;;5018785;28;20224;-89
2021/08/15 08:52:35;;;;;;;8.73;7.93;;;26.30;57.80;;;;;;5015542;28;20371;-89
2021/08/15 08:55:03;;;;;;;9.73;8.02;;;26.50;57.40;;;;;;5017186;28;20257;-88
2021/08/15 08:57:29;;;;;;;9.30;7.43;;;26.60;57.70;;;;;;5022076;28;20189;-89
2021/08/15 08:59:55;;;;;;;11.93;8.52;;;26.70;56.90;;;;;;5020216;28;20216;-89
2021/08/15 09:02:20;;;;;;;12.75;11.50;;;26.90;57.00;;;;;;5021640;28;20656;-88
2021/08/15 09:04:47;;;;;;;10.13;8.48;;;26.90;55.70;;;;;;5022901;28;20680;-88
2021/08/15 09:07:14;;;;;;;10.82;8.60;;;27.00;56.50;;;;;;5023170;28;20189;-88
2021/08/15 09:09:50;;;;;;;9.05;8.25;;;27.00;57.10;;;;;;5021271;28;20293;-89
2021/08/15 09:12:16;;;;;;;9.68;8.75;;;27.10;56.20;;;;;;5021053;28;20209;-88
2021/08/15 09:14:42;;;;;;;9.90;8.32;;;27.20;56.30;;;;;;5022016;28;20656;-88
2021/08/15 09:17:08;;;;;;;9.20;8.13;;;27.20;56.80;;;;;;5021369;28;20196;-87
2021/08/15 09:19:41;;;;;;;9.23;8.30;;;27.40;56.60;;;;;;5020876;28;20186;-88
2021/08/15 09:22:21;;;;;;;8.50;7.35;;;27.30;55.80;;;;;;5021310;28;20256;-88
2021/08/15 09:25:09;;;;;;;9.50;8.32;;;27.40;55.60;;;;;;5039214;28;20567;-87
2021/08/15 09:27:45;;;;;;;9.32;8.00;;;27.70;55.60;;;;;;5019880;28;20690;-87
2021/08/15 09:30:15;;;;;;;9.23;8.15;;;27.70;54.10;;;;;;5036783;28;20185;-87
2021/08/15 09:33:03;;;;;;;8.90;8.20;;;27.80;54.90;;;;;;5023632;28;20186;-88
2021/08/15 09:35:34;;;;;;;11.65;8.75;;;28.10;53.70;;;;;;5023232;28;20268;-87
2021/08/15 09:38:06;;;;;;;8.65;7.95;;;28.10;53.00;;;;;;5023830;28;20190;-87
2021/08/15 09:40:41;;;;;;;8.95;8.25;;;28.20;53.70;;;;;;5022392;28;20229;-87
2021/08/15 09:43:16;;;;;;;8.90;8.10;;;28.10;53.40;;;;;;5037606;28;20260;-87
2021/08/15 09:45:44;;;;;;;9.38;8.48;;;28.00;54.30;;;;;;5022676;28;20184;-88
2021/08/15 09:48:27;;;;;;;9.35;8.55;;;28.00;54.10;;;;;;5021051;28;20186;-87
2021/08/15 09:51:19;;;;;;;9.68;8.05;;;28.10;55.00;;;;;;5011885;28;20237;-87
2021/08/15 09:53:53;;;;;;;8.55;7.65;;;28.30;54.10;;;;;;5021360;28;20182;-88
2021/08/15 09:56:36;;;;;;;8.63;7.82;;;28.70;53.20;;;;;;5023412;28;20279;-87
2021/08/15 09:59:23;;;;;;;10.90;7.47;;;28.80;52.20;;;;;;5022659;28;20273;-89
2021/08/15 10:01:53;;;;;;;8.68;7.97;;;28.80;52.30;;;;;;5023984;28;20213;-88
2021/08/15 10:04:20;;;;;;;9.45;7.95;;;28.80;52.40;;;;;;5022789;28;20189;-88
2021/08/15 10:06:48;;;;;;;8.57;7.88;;;28.80;52.00;;;;;;5022587;28;20182;-87
2021/08/15 10:09:14;;;;;;;9.32;8.40;;;29.00;52.20;;;;;;5021660;28;20239;-87
2021/08/15 10:11:41;;;;;;;9.20;7.85;;;29.20;50.70;;;;;;5023617;28;20214;-87
2021/08/15 10:14:09;;;;;;;9.13;8.20;;;29.10;50.90;;;;;;5024287;28;20193;-87
2021/08/15 10:16:43;;;;;;;9.63;8.73;;;28.90;50.90;;;;;;5023237;28;20228;-87
2021/08/15 10:19:12;;;;;;;8.65;7.95;;;29.00;51.60;;;;;;5022160;28;20193;-87
2021/08/15 10:21:43;;;;;;;9.52;8.52;;;28.90;50.20;;;;;;5038651;28;20221;-88
2021/08/15 10:24:11;;;;;;;14.20;9.20;;;28.70;50.50;;;;;;5025463;28;20185;-89
2021/08/15 10:26:39;;;;;;;9.30;8.02;;;28.60;51.80;;;;;;5035991;28;20206;-89
2021/08/15 10:29:24;;;;;;;8.88;7.43;;;28.70;52.30;;;;;;5034206;28;20202;-88
2021/08/15 10:32:09;;;;;;;8.68;7.75;;;28.60;52.30;;;;;;5021852;28;20205;-87
2021/08/15 10:34:49;;;;;;;8.57;7.78;;;28.90;52.20;;;;;;5022402;28;20282;-87
2021/08/15 10:37:24;;;;;;;8.82;7.90;;;29.00;52.80;;;;;;5033444;28;20190;-87
2021/08/15 10:39:52;;;;;;;9.02;8.13;;;29.20;50.60;;;;;;5020031;28;20181;-87
2021/08/15 10:42:43;;;;;;;9.43;8.40;;;29.40;51.50;;;;;;5021798;28;20703;-87
2021/08/15 10:45:29;;;;;;;9.57;8.10;;;29.60;50.20;;;;;;5021908;28;20188;-87
2021/08/15 10:48:09;;;;;;;8.35;7.50;;;30.00;49.00;;;;;;5020727;28;20193;-88
2021/08/15 10:50:44;;;;;;;8.98;8.25;;;30.40;47.40;;;;;;5020900;28;20209;-88
2021/08/15 10:53:29;;;;;;;9.25;8.35;;;30.50;47.40;;;;;;5015643;28;20207;-87
2021/08/15 10:56:06;;;;;;;8.80;8.00;;;30.60;46.70;;;;;;5019475;28;20310;-88
2021/08/15 10:58:39;;;;;;;8.35;7.57;;;30.60;47.30;;;;;;5016108;28;20271;-88
2021/08/15 11:01:10;;;;;;;8.55;7.75;;;30.80;46.30;;;;;;5024716;28;20217;-88
2021/08/15 11:03:52;;;;;;;9.68;8.75;;;31.10;46.00;;;;;;5019994;28;20209;-88
2021/08/15 11:06:30;;;;;;;9.18;8.20;;;31.30;45.50;;;;;;5016415;28;20197;-88
2021/08/15 11:08:58;;;;;;;8.93;8.23;;;31.40;45.00;;;;;;5019516;28;20610;-87
2021/08/15 11:11:31;;;;;;;8.93;8.07;;;31.80;44.90;;;;;;5019967;28;20229;-88
2021/08/15 11:14:21;;;;;;;9.68;8.77;;;31.80;44.40;;;;;;5019975;28;20193;-88
2021/08/15 11:16:56;;;;;;;8.77;8.07;;;31.30;45.10;;;;;;5017218;28;20647;-88
2021/08/15 11:19:21;;;;;;;8.82;8.13;;;31.50;45.10;;;;;;5022429;28;20192;-88
2021/08/15 11:22:18;;;;;;;9.95;8.23;;;31.80;43.30;;;;;;5022145;28;20263;-88
2021/08/15 11:24:43;;;;;;;9.98;8.32;;;31.80;43.40;;;;;;5019168;28;20801;-88
2021/08/15 11:27:11;;;;;;;9.30;8.52;;;32.10;44.00;;;;;;5020332;28;20181;-88
2021/08/15 11:29:38;;;;;;;8.85;8.07;;;32.10;44.00;;;;;;5020966;28;20190;-88
2021/08/15 11:32:04;;;;;;;9.75;8.93;;;32.30;43.70;;;;;;5019997;28;20233;-88
2021/08/15 11:34:30;;;;;;;9.57;8.77;;;32.50;42.40;;;;;;5015408;28;20186;-88
2021/08/15 11:37:02;;;;;;;9.27;8.48;;;32.80;42.20;;;;;;5034498;28;20209;-88
2021/08/15 11:39:34;;;;;;;9.45;8.60;;;32.90;41.00;;;;;;5019460;28;20189;-88
2021/08/15 11:42:02;;;;;;;8.75;8.10;;;33.00;41.50;;;;;;5020588;28;20279;-88
2021/08/15 11:45:00;;;;;;;9.73;8.82;;;33.30;40.90;;;;;;5019383;28;20720;-87
2021/08/15 11:47:31;;;;;;;10.65;8.85;;;33.20;41.90;;;;;;5019386;28;20522;-87
2021/08/15 11:49:59;;;;;;;9.85;9.00;;;33.10;42.60;;;;;;5018353;28;20282;-88
2021/08/15 11:52:37;;;;;;;9.25;8.30;;;33.40;41.70;;;;;;5023295;28;20209;-89
2021/08/15 11:55:05;;;;;;;12.10;9.52;;;33.60;41.30;;;;;;5017780;28;20193;-88
2021/08/15 11:57:50;;;;;;;9.85;8.98;;;33.80;40.30;;;;;;5018354;28;20201;-89
2021/08/15 12:00:16;;;;;;;9.13;8.43;;;33.60;40.10;;;;;;5034064;28;20212;-88
2021/08/15 12:03:04;;;;;;;11.40;10.35;;;33.90;40.60;;;;;;5032754;28;20218;-88
2021/08/15 12:05:30;;;;;;;10.35;9.55;;;34.00;40.30;;;;;;5022391;28;20240;-88
2021/08/15 12:08:07;;;;;;;9.90;9.02;;;34.20;40.40;;;;;;5020303;28;20284;-88
2021/08/15 12:10:39;;;;;;;12.13;9.65;;;34.60;39.90;;;;;;5020764;28;20528;-89
2021/08/15 12:13:32;;;;;;;10.02;9.15;;;34.60;39.10;;;;;;5021509;28;20541;-88
2021/08/15 12:15:58;;;;;;;11.02;9.95;;;34.70;38.50;;;;;;5018587;28;20288;-88
2021/08/15 12:18:37;;;;;;;10.35;9.18;;;34.30;39.60;;;;;;5019994;28;20185;-88
2021/08/15 12:21:18;;;;;;;10.88;9.90;;;34.10;39.60;;;;;;5020869;28;20223;-88
2021/08/15 12:24:26;;;;;;;10.00;9.25;;;34.50;39.30;;;;;;5020902;28;20189;-88
2021/08/15 12:27:04;;;;;;;18.23;11.98;;;35.20;39.00;;;;;;5010549;28;20464;-89
2021/08/15 12:29:34;;;;;;;15.25;10.57;;;35.00;39.30;;;;;;5019381;28;20323;-88
2021/08/15 12:32:01;;;;;;;10.90;10.00;;;34.90;38.20;;;;;;5022437;28;20217;-88
2021/08/15 12:34:27;;;;;;;11.75;10.65;;;35.00;38.40;;;;;;5021981;28;20189;-88
2021/08/15 12:36:56;;;;;;;10.27;9.38;;;35.10;37.80;;;;;;5027339;28;20198;-88
2021/08/15 12:39:30;;;;;;;14.77;11.63;;;35.20;38.60;;;;;;5026569;28;20193;-88
2021/08/15 12:42:05;;;;;;;11.27;10.18;;;35.50;38.30;;;;;;5021750;28;20231;-88
2021/08/15 12:44:31;;;;;;;10.80;10.00;;;36.10;36.90;;;;;;5024490;28;20320;-88
2021/08/15 12:47:08;;;;;;;11.13;10.32;;;35.60;37.40;;;;;;5024342;28;20667;-88